Time;durP1;ratioP1;P1;durP2;ratioP2;P2;SDS_P1;SDS_P2;PMS_P1;PMS_P2;Temp;Humidity;BMP_temperature;BMP_pressure;BME280_temperature;BME280_humidity;BME280_pressure;Samples;Min_cycle;Max_cycle;Signal;HPM_P1;HPM_P2
2021/12/26 00:01:17;;;;;;;5.30;2.78;;;;;;;5.76;50.43;100421.84;5029008;28;20072;-74
2021/12/26 00:03:43;;;;;;;4.05;2.63;;;;;;;5.77;50.45;100422.69;5029267;28;20081;-74
2021/12/26 00:06:18;;;;;;;5.50;3.00;;;;;;;5.80;50.27;100419.84;5026280;28;20045;-74
2021/12/26 00:08:46;;;;;;;4.78;2.72;;;;;;;5.80;50.47;100423.41;5028177;28;20095;-74
2021/12/26 00:11:13;;;;;;;4.65;2.80;;;;;;;5.81;50.42;100429.66;5028574;28;20076;-74
2021/12/26 00:13:41;;;;;;;5.18;3.05;;;;;;;5.82;50.44;100421.50;5028996;28;20057;-74
2021/12/26 00:16:09;;;;;;;4.15;2.80;;;;;;;5.83;50.30;100417.88;5028666;28;20519;-74
2021/12/26 00:18:42;;;;;;;4.88;3.15;;;;;;;5.84;50.20;100419.63;5029170;28;20494;-74
2021/12/26 00:21:09;;;;;;;5.93;3.00;;;;;;;5.82;50.20;100416.13;5036583;28;20045;-74
2021/12/26 00:23:35;;;;;;;5.10;2.90;;;;;;;5.85;50.26;100415.09;5029342;28;20099;-74
2021/12/26 00:26:02;;;;;;;4.38;3.05;;;;;;;5.87;49.87;100416.72;5028389;28;20103;-74
2021/12/26 00:28:29;;;;;;;6.35;2.90;;;;;;;5.87;50.14;100414.03;5028078;28;20067;-74
2021/12/26 00:30:56;;;;;;;4.38;2.72;;;;;;;5.88;50.15;100418.50;5028652;28;20050;-74
2021/12/26 00:33:23;;;;;;;4.00;2.60;;;;;;;5.90;49.98;100413.91;5028903;28;20505;-74
2021/12/26 00:35:51;;;;;;;4.30;2.67;;;;;;;5.90;50.07;100402.28;5028291;28;20491;-73
2021/12/26 00:38:18;;;;;;;3.95;2.70;;;;;;;5.91;50.00;100410.28;5027737;28;20424;-74
2021/12/26 00:40:44;;;;;;;4.70;2.65;;;;;;;5.92;50.31;100403.06;5028733;28;20455;-74
2021/12/26 00:43:12;;;;;;;3.53;2.40;;;;;;;5.92;50.34;100393.16;5028177;28;20052;-74
2021/12/26 00:45:40;;;;;;;5.80;3.30;;;;;;;5.93;50.02;100386.78;5028068;28;20049;-74
2021/12/26 00:48:07;;;;;;;4.25;2.80;;;;;;;5.95;49.64;100392.09;5028466;28;20041;-74
2021/12/26 00:50:37;;;;;;;5.47;3.00;;;;;;;5.95;49.60;100386.72;5027867;28;20389;-74
2021/12/26 00:53:03;;;;;;;4.18;2.40;;;;;;;5.94;50.15;100388.53;5028104;28;20099;-73
2021/12/26 00:55:30;;;;;;;3.95;2.72;;;;;;;5.94;50.03;100388.53;5029166;28;20077;-74
2021/12/26 00:57:57;;;;;;;3.65;2.40;;;;;;;5.94;50.05;100385.84;5031519;28;20053;-74
2021/12/26 01:00:30;;;;;;;5.13;2.88;;;;;;;5.96;49.53;100380.38;5027182;28;20251;-74
2021/12/26 01:03:01;;;;;;;4.53;2.97;;;;;;;5.94;49.96;100383.13;5027422;28;20178;-74
2021/12/26 01:05:29;;;;;;;5.03;2.90;;;;;;;5.96;49.84;100378.53;5029029;28;20077;-74
2021/12/26 01:07:58;;;;;;;5.30;3.33;;;;;;;5.96;50.22;100389.31;5026094;28;20132;-74
2021/12/26 01:10:32;;;;;;;5.20;3.10;;;;;;;5.96;49.72;100374.97;5043604;28;20381;-74
2021/12/26 01:12:59;;;;;;;4.18;2.75;;;;;;;5.96;50.09;100381.25;5027732;28;20046;-74
2021/12/26 01:15:26;;;;;;;4.65;2.92;;;;;;;5.95;50.04;100381.31;5028537;28;20096;-74
2021/12/26 01:17:56;;;;;;;4.43;2.40;;;;;;;5.96;50.07;100381.25;5009559;28;20053;-74
2021/12/26 01:20:45;;;;;;;4.82;2.40;;;;;;;5.98;49.34;100387.41;5028235;28;20071;-74
2021/12/26 01:23:21;;;;;;;4.47;2.60;;;;;;;5.97;50.04;100382.97;5025202;28;20141;-74
2021/12/26 01:25:49;;;;;;;4.80;2.75;;;;;;;5.98;50.14;100387.41;5028309;28;20057;-74
2021/12/26 01:28:18;;;;;;;5.43;2.80;;;;;;;5.99;49.91;100382.91;5028534;28;20092;-74
2021/12/26 01:30:45;;;;;;;3.88;2.60;;;;;;;5.99;50.00;100389.16;5027458;28;20455;-74
2021/12/26 01:33:14;;;;;;;3.95;2.45;;;;;;;6.00;49.75;100372.03;5029275;28;20081;-74
2021/12/26 01:35:42;;;;;;;4.68;2.80;;;;;;;6.00;49.85;100380.13;5031780;28;20048;-74
2021/12/26 01:38:13;;;;;;;4.32;2.72;;;;;;;6.01;50.07;100383.69;5029794;28;20147;-74
2021/12/26 01:40:47;;;;;;;5.00;2.97;;;;;;;6.04;49.65;100381.69;5031695;28;20116;-74
2021/12/26 01:43:16;;;;;;;4.35;2.80;;;;;;;6.02;50.18;100388.09;5027628;28;20142;-74
2021/12/26 01:45:43;;;;;;;4.60;2.70;;;;;;;6.02;49.87;100375.50;5027097;28;20065;-74
2021/12/26 01:48:10;;;;;;;4.60;2.67;;;;;;;6.03;49.86;100381.75;5031184;28;20397;-74
2021/12/26 01:50:37;;;;;;;5.00;3.00;;;;;;;6.03;49.92;100376.38;5028808;28;20072;-75
2021/12/26 01:53:05;;;;;;;4.75;3.22;;;;;;;6.04;49.97;100387.06;5031802;28;20045;-74
2021/12/26 01:55:45;;;;;;;4.68;2.70;;;;;;;6.06;49.80;100381.59;5014491;28;20049;-74
2021/12/26 01:58:22;;;;;;;4.10;2.47;;;;;;;6.08;49.89;100382.41;5034065;28;20045;-74
2021/12/26 02:01:03;;;;;;;4.15;2.35;;;;;;;6.08;50.01;100377.00;5030747;28;20085;-74
2021/12/26 02:03:34;;;;;;;3.90;2.45;;;;;;;6.10;49.83;100377.75;5008585;28;20165;-74
2021/12/26 02:06:01;;;;;;;4.22;2.80;;;;;;;6.10;50.20;100378.63;5030915;28;20099;-74
2021/12/26 02:08:27;;;;;;;5.05;3.08;;;;;;;6.11;50.10;100376.81;5029369;28;20049;-74
2021/12/26 02:10:54;;;;;;;4.97;2.90;;;;;;;6.13;49.93;100371.34;5031166;28;20466;-74
2021/12/26 02:13:20;;;;;;;5.43;2.70;;;;;;;6.16;50.06;100373.88;5031075;28;20077;-74
2021/12/26 02:15:51;;;;;;;5.50;3.13;;;;;;;6.18;49.73;100361.19;5031164;28;20081;-74
2021/12/26 02:18:19;;;;;;;3.97;2.58;;;;;;;6.18;49.91;100359.34;5031078;28;20042;-74
2021/12/26 02:28:47;;;;;;;5.03;2.90;;;;;;;6.21;49.39;100364.56;5031229;28;20095;-74
2021/12/26 02:31:15;;;;;;;4.95;2.90;;;;;;;6.19;49.60;100368.28;5030955;28;20049;-74
2021/12/26 02:33:43;;;;;;;5.15;3.00;;;;;;;6.20;49.75;100370.03;5027763;28;20050;-74
2021/12/26 02:36:10;;;;;;;4.93;2.95;;;;;;;6.19;49.97;100363.78;5030671;28;20053;-74
2021/12/26 02:38:36;;;;;;;4.25;2.80;;;;;;;6.21;49.87;100361.88;5030030;28;20068;-74
2021/12/26 02:41:04;;;;;;;4.55;2.63;;;;;;;6.22;49.74;100354.66;5030834;28;20049;-74
2021/12/26 02:43:32;;;;;;;4.95;2.85;;;;;;;6.23;50.14;100359.09;5029833;28;20440;-74
2021/12/26 02:46:05;;;;;;;4.50;2.90;;;;;;;6.25;49.89;100354.50;5027851;28;20052;-74
2021/12/26 02:48:33;;;;;;;4.57;2.70;;;;;;;6.24;49.86;100350.94;5027877;28;20667;-74
2021/12/26 02:51:01;;;;;;;5.28;2.92;;;;;;;6.27;49.85;100350.72;5028036;28;20045;-74
2021/12/26 02:53:28;;;;;;;4.97;3.10;;;;;;;6.26;49.58;100349.00;5028229;28;20451;-74
2021/12/26 02:55:57;;;;;;;4.72;2.88;;;;;;;6.27;49.54;100348.03;5029405;28;20489;-74
2021/12/26 02:58:24;;;;;;;4.55;2.75;;;;;;;6.26;49.72;100351.69;5027794;28;20143;-74
2021/12/26 03:00:56;;;;;;;4.85;3.05;;;;;;;6.28;49.69;100349.78;5025880;28;20084;-74
2021/12/26 03:03:23;;;;;;;5.38;2.97;;;;;;;6.26;49.79;100349.00;5020435;28;20049;-74
2021/12/26 03:06:02;;;;;;;5.38;3.33;;;;;;;6.29;49.43;100351.53;5004605;28;20100;-74
2021/12/26 03:08:29;;;;;;;4.47;2.90;;;;;;;6.28;49.92;100362.38;5022206;28;20493;-74
2021/12/26 03:10:56;;;;;;;5.28;3.35;;;;;;;6.28;49.71;100346.22;5028422;28;20077;-74
2021/12/26 03:13:24;;;;;;;5.40;3.25;;;;;;;6.29;49.48;100356.03;5029223;28;20500;-74
2021/12/26 03:15:50;;;;;;;5.13;3.08;;;;;;;6.26;49.70;100356.22;5026904;28;20053;-75
2021/12/26 03:18:17;;;;;;;5.80;3.30;;;;;;;6.25;49.56;100355.38;5027964;28;20055;-74
2021/12/26 03:20:48;;;;;;;5.55;3.38;;;;;;;6.26;49.44;100359.78;5027446;28;20581;-75
2021/12/26 03:23:18;;;;;;;5.88;3.25;;;;;;;6.24;49.39;100360.84;5028662;28;20072;-75
2021/12/26 03:25:46;;;;;;;6.03;3.38;;;;;;;6.23;49.66;100357.28;5044596;28;20054;-75
2021/12/26 03:28:13;;;;;;;4.80;3.05;;;;;;;6.23;49.78;100359.97;5028515;28;20060;-74
2021/12/26 03:30:41;;;;;;;5.70;3.47;;;;;;;6.24;49.69;100358.13;5028330;28;20057;-75
2021/12/26 03:33:09;;;;;;;4.50;3.13;;;;;;;6.24;49.75;100359.00;5028536;28;20086;-74
2021/12/26 03:35:38;;;;;;;4.88;2.80;;;;;;;6.25;49.46;100354.50;5028540;28;20527;-74
2021/12/26 03:38:06;;;;;;;5.43;3.30;;;;;;;6.25;49.58;100354.50;5035399;28;20060;-74
2021/12/26 03:40:33;;;;;;;5.10;3.40;;;;;;;6.25;49.79;100351.78;5026010;28;20104;-74
2021/12/26 03:43:00;;;;;;;5.07;3.23;;;;;;;6.27;49.43;100357.94;4984590;28;1239444;-74
2021/12/26 03:45:40;;;;;;;5.40;3.40;;;;;;;6.25;49.54;100355.38;5018931;28;20053;-75
2021/12/26 03:48:07;;;;;;;5.72;3.35;;;;;;;6.26;49.47;100348.16;5028224;28;20055;-75
2021/12/26 03:50:38;;;;;;;4.72;2.88;;;;;;;6.24;49.68;100340.16;5030789;28;20049;-75
2021/12/26 03:53:05;;;;;;;5.95;3.63;;;;;;;6.25;49.52;100343.72;5024321;28;21358;-75
2021/12/26 03:55:31;;;;;;;5.38;3.35;;;;;;;6.25;49.50;100344.56;5029834;28;20116;-74
2021/12/26 03:57:58;;;;;;;5.22;3.47;;;;;;;6.24;49.68;100342.84;5030325;28;20265;-74
2021/12/26 04:00:27;;;;;;;4.85;3.20;;;;;;;6.27;49.36;100347.16;5029667;28;20053;-74
2021/12/26 04:02:54;;;;;;;5.47;3.40;;;;;;;6.26;49.76;100337.38;5028648;28;20088;-75
2021/12/26 04:05:21;;;;;;;5.45;2.85;;;;;;;6.25;49.36;100333.81;5029589;28;20053;-74
2021/12/26 04:07:49;;;;;;;5.63;3.38;;;;;;;6.27;49.40;100326.47;5027535;28;20086;-74
2021/12/26 04:10:16;;;;;;;5.00;3.22;;;;;;;6.26;49.75;100324.72;5028510;28;20053;-74
2021/12/26 04:12:47;;;;;;;5.43;3.28;;;;;;;6.26;49.52;100324.72;5028771;28;20128;-74
2021/12/26 04:15:19;;;;;;;5.53;3.30;;;;;;;6.27;49.77;100322.91;5029400;28;20080;-74
2021/12/26 04:17:47;;;;;;;4.65;2.78;;;;;;;6.25;49.71;100328.41;5021125;28;20065;-74
2021/12/26 04:20:14;;;;;;;5.25;3.42;;;;;;;6.28;49.76;100332.72;5028496;28;20377;-74
2021/12/26 04:22:41;;;;;;;4.93;3.33;;;;;;;6.29;50.08;100324.56;5028755;28;20049;-74
2021/12/26 04:25:08;;;;;;;6.40;3.75;;;;;;;6.28;49.73;100333.59;5029541;28;20057;-74
2021/12/26 04:27:36;;;;;;;5.70;3.78;;;;;;;6.28;49.66;100325.50;5027443;28;20111;-74
2021/12/26 04:30:06;;;;;;;6.18;3.75;;;;;;;6.29;49.43;100326.38;5031108;28;20136;-74
2021/12/26 04:32:33;;;;;;;6.30;3.33;;;;;;;6.27;49.74;100326.47;5043062;28;20099;-74
2021/12/26 04:35:00;;;;;;;6.43;3.63;;;;;;;6.28;49.91;100330.91;5028731;28;20081;-74
2021/12/26 04:37:27;;;;;;;6.93;3.55;;;;;;;6.29;49.65;100329.09;5027422;28;20045;-74
2021/12/26 04:39:53;;;;;;;5.47;3.47;;;;;;;6.29;49.58;100321.00;5026697;28;20053;-74
2021/12/26 04:42:20;;;;;;;5.20;3.40;;;;;;;6.30;49.72;100320.91;5028841;28;20128;-74
2021/12/26 04:44:48;;;;;;;6.22;3.70;;;;;;;6.31;49.68;100321.78;5028665;28;20484;-74
2021/12/26 04:47:15;;;;;;;5.18;3.45;;;;;;;6.31;49.83;100319.09;5028156;28;20051;-75
2021/12/26 04:49:42;;;;;;;6.20;3.65;;;;;;;6.32;49.98;100315.44;5028265;28;20103;-74
2021/12/26 04:52:08;;;;;;;6.10;3.63;;;;;;;6.31;49.66;100314.56;5027946;28;20132;-75
2021/12/26 04:54:36;;;;;;;5.60;3.42;;;;;;;6.31;49.74;100311.88;5028769;28;20520;-74
2021/12/26 04:57:03;;;;;;;7.57;3.78;;;;;;;6.31;49.67;100309.19;5028319;28;20113;-74
2021/12/26 04:59:30;;;;;;;5.55;3.40;;;;;;;6.31;49.56;100309.19;5032159;28;20051;-74
2021/12/26 05:01:56;;;;;;;6.10;3.63;;;;;;;6.30;50.02;100301.16;5004044;28;20312;-74
2021/12/26 05:04:23;;;;;;;5.47;3.67;;;;;;;6.31;49.72;100301.09;5027051;28;20054;-74
2021/12/26 05:06:50;;;;;;;6.13;3.83;;;;;;;6.29;49.62;100305.69;5027022;28;20053;-74
2021/12/26 05:09:18;;;;;;;5.95;3.88;;;;;;;6.29;49.64;100300.31;5032498;28;20049;-74
2021/12/26 05:11:45;;;;;;;6.30;3.97;;;;;;;6.29;49.53;100305.69;5010419;28;20499;-74
2021/12/26 05:14:11;;;;;;;7.15;4.13;;;;;;;6.28;49.60;100300.38;5027943;28;20275;-74
2021/12/26 05:16:38;;;;;;;5.93;3.50;;;;;;;6.29;49.93;100296.72;5026354;28;20365;-74
2021/12/26 05:19:05;;;;;;;7.32;3.83;;;;;;;6.28;49.69;100305.78;5027434;28;20503;-74
2021/12/26 05:21:32;;;;;;;6.30;3.75;;;;;;;6.28;49.75;100300.38;5028252;28;20037;-74
2021/12/26 05:23:58;;;;;;;6.43;4.03;;;;;;;6.27;49.74;100315.69;5026907;28;20045;-74
2021/12/26 05:26:25;;;;;;;6.30;3.95;;;;;;;6.28;49.75;100309.34;5028347;28;20037;-74
2021/12/26 05:28:52;;;;;;;6.45;3.70;;;;;;;6.27;49.76;100307.59;5030361;28;20084;-74
2021/12/26 05:31:18;;;;;;;6.18;3.70;;;;;;;6.26;49.62;100305.84;5024174;28;20046;-74
2021/12/26 05:33:45;;;;;;;6.50;3.65;;;;;;;6.27;49.75;100304.91;5027545;28;20052;-74
2021/12/26 05:36:12;;;;;;;7.15;4.22;;;;;;;6.27;49.79;100299.50;5026227;28;20551;-74
2021/12/26 05:38:39;;;;;;;7.30;3.78;;;;;;;6.28;49.76;100295.88;5027300;28;20076;-74
2021/12/26 05:41:06;;;;;;;6.07;3.75;;;;;;;6.27;49.69;100296.81;5027687;28;20049;-74
2021/12/26 05:43:33;;;;;;;7.90;4.18;;;;;;;6.30;49.80;100301.16;5027417;28;20078;-74
2021/12/26 05:45:59;;;;;;;7.57;4.22;;;;;;;6.30;49.90;100303.88;5025530;28;20536;-74
2021/12/26 05:48:26;;;;;;;6.35;3.88;;;;;;;6.31;49.65;100308.31;5021829;28;20076;-74
2021/12/26 05:50:53;;;;;;;6.25;3.88;;;;;;;6.30;49.68;100309.25;5027324;28;20149;-74
2021/12/26 05:53:20;;;;;;;6.50;3.67;;;;;;;6.31;49.75;100303.78;5027751;28;20132;-74
2021/12/26 05:55:46;;;;;;;6.50;3.85;;;;;;;6.31;49.65;100308.31;5027714;28;20072;-74
2021/12/26 05:58:13;;;;;;;6.70;4.32;;;;;;;6.32;49.79;100296.56;5023983;28;20096;-74
2021/12/26 06:00:40;;;;;;;6.03;3.85;;;;;;;6.32;49.81;100294.75;5042457;28;20081;-74
2021/12/26 06:03:06;;;;;;;6.55;3.95;;;;;;;6.32;49.82;100310.91;5026098;28;20042;-74
2021/12/26 06:05:33;;;;;;;7.32;3.80;;;;;;;6.33;49.76;100301.88;5028682;28;20137;-74
2021/12/26 06:08:00;;;;;;;6.20;4.00;;;;;;;6.35;49.69;100313.41;5026853;28;20045;-74
2021/12/26 06:10:26;;;;;;;5.32;3.38;;;;;;;6.36;49.99;100301.69;5010066;28;20080;-74
2021/12/26 06:12:53;;;;;;;7.03;4.30;;;;;;;6.36;49.86;100298.97;5027066;28;20136;-74
2021/12/26 06:15:19;;;;;;;6.00;3.90;;;;;;;6.37;49.70;100295.34;5028170;28;20049;-74
2021/12/26 06:17:46;;;;;;;6.60;4.05;;;;;;;6.37;49.89;100289.06;5027005;28;20050;-74
2021/12/26 06:20:16;;;;;;;6.82;3.90;;;;;;;6.37;49.76;100289.94;5029881;28;20496;-74
2021/12/26 06:22:44;;;;;;;5.70;3.70;;;;;;;6.37;49.84;100298.03;5030229;28;20076;-74
2021/12/26 06:25:12;;;;;;;6.25;4.05;;;;;;;6.38;49.83;100288.09;5047078;28;20085;-74
2021/12/26 06:27:39;;;;;;;6.43;3.97;;;;;;;6.38;49.80;100280.91;5030253;28;20069;-75
2021/12/26 06:30:07;;;;;;;5.88;3.80;;;;;;;6.40;49.81;100291.59;5029262;28;20068;-74
2021/12/26 06:32:34;;;;;;;6.60;3.80;;;;;;;6.37;49.61;100299.84;5030560;28;20045;-75
2021/12/26 06:35:01;;;;;;;7.30;4.20;;;;;;;6.38;49.53;100280.91;5031261;28;20084;-75
2021/12/26 06:37:31;;;;;;;6.28;4.05;;;;;;;6.38;49.61;100286.28;5028750;28;20115;-74
2021/12/26 06:39:59;;;;;;;7.00;4.43;;;;;;;6.37;49.68;100281.84;5026879;28;20053;-74
2021/12/26 06:42:28;;;;;;;6.85;3.97;;;;;;;6.37;49.81;100287.25;5030921;28;20041;-75
2021/12/26 06:44:55;;;;;;;6.68;3.95;;;;;;;6.36;49.67;100295.41;5026484;28;20104;-74
2021/12/26 06:47:22;;;;;;;5.97;3.90;;;;;;;6.36;49.82;100293.59;5029462;28;20046;-74
2021/12/26 06:49:49;;;;;;;7.05;4.45;;;;;;;6.36;49.77;100292.72;5030531;28;20050;-74
2021/12/26 06:52:16;;;;;;;7.30;4.43;;;;;;;6.35;49.72;100289.16;5015448;28;20037;-75
2021/12/26 06:54:43;;;;;;;6.43;4.53;;;;;;;6.35;49.76;100297.25;5031452;28;20061;-74
2021/12/26 06:57:09;;;;;;;6.63;4.15;;;;;;;6.34;49.58;100283.88;5030012;28;20049;-75
2021/12/26 06:59:36;;;;;;;7.53;4.25;;;;;;;6.34;49.76;100282.00;5037528;28;20049;-74
2021/12/26 07:02:03;;;;;;;6.45;3.90;;;;;;;6.36;49.67;100292.72;5029657;28;20558;-75
2021/12/26 07:04:29;;;;;;;7.82;4.15;;;;;;;6.37;49.75;100298.03;5030703;28;20107;-74
2021/12/26 07:06:56;;;;;;;6.45;4.10;;;;;;;6.37;49.89;100286.38;5031995;28;20528;-74
2021/12/26 07:09:22;;;;;;;7.35;4.80;;;;;;;6.37;49.84;100287.25;5028847;28;20041;-74
2021/12/26 07:11:54;;;;;;;6.47;4.00;;;;;;;6.37;49.90;100295.34;5025243;28;20497;-75
2021/12/26 07:14:21;;;;;;;7.00;4.30;;;;;;;6.38;49.77;100291.69;5033606;28;20081;-75
2021/12/26 07:16:47;;;;;;;7.30;4.47;;;;;;;6.38;49.98;100288.97;5027288;28;20038;-74
2021/12/26 07:19:14;;;;;;;7.78;4.28;;;;;;;6.38;49.90;100294.38;5025485;28;20103;-75
2021/12/26 07:21:41;;;;;;;6.53;3.97;;;;;;;6.39;49.50;100298.81;5029601;28;20136;-75
2021/12/26 07:24:08;;;;;;;7.05;4.13;;;;;;;6.39;49.89;100295.25;5027690;28;20042;-74
2021/12/26 07:26:35;;;;;;;8.50;4.82;;;;;;;6.40;50.03;100299.69;5028692;28;20472;-75
2021/12/26 07:29:02;;;;;;;7.15;4.63;;;;;;;6.40;49.88;100314.03;5035714;28;20068;-75
2021/12/26 07:31:28;;;;;;;6.15;4.45;;;;;;;6.40;49.90;100302.38;5043768;28;20052;-75
2021/12/26 07:33:55;;;;;;;7.90;4.25;;;;;;;6.40;50.06;100303.25;5026195;28;20053;-76
2021/12/26 07:36:25;;;;;;;6.35;4.45;;;;;;;6.40;49.89;100307.78;5007426;28;20042;-75
2021/12/26 07:38:52;;;;;;;7.30;4.90;;;;;;;6.41;49.89;100306.81;5028868;28;20139;-75
2021/12/26 07:41:21;;;;;;;6.53;4.20;;;;;;;6.41;49.90;100315.78;5029325;28;20508;-75
2021/12/26 07:43:48;;;;;;;6.40;4.10;;;;;;;6.43;49.88;100307.56;5027034;28;20481;-74
2021/12/26 07:46:16;;;;;;;6.25;4.05;;;;;;;6.43;49.77;100294.97;5029289;28;20459;-75
2021/12/26 07:48:43;;;;;;;7.38;4.50;;;;;;;6.44;49.97;100296.69;5028789;28;20124;-75
2021/12/26 07:51:10;;;;;;;8.73;4.72;;;;;;;6.44;49.73;100309.31;5029015;28;20107;-75
2021/12/26 07:53:37;;;;;;;7.32;4.50;;;;;;;6.46;49.96;100304.72;5029064;28;20045;-75
2021/12/26 07:56:04;;;;;;;6.43;4.22;;;;;;;6.46;50.02;100300.19;5005408;28;20042;-75
2021/12/26 07:58:30;;;;;;;7.15;4.55;;;;;;;6.46;49.99;100299.31;5023170;28;20087;-74
2021/12/26 08:00:57;;;;;;;7.25;4.43;;;;;;;6.47;49.99;100301.94;5009376;28;20045;-76
2021/12/26 08:03:24;;;;;;;7.07;4.60;;;;;;;6.49;49.92;100299.16;5024300;28;20095;-75
2021/12/26 08:05:51;;;;;;;7.20;4.65;;;;;;;6.50;49.91;100292.78;5019163;28;20081;-74
2021/12/26 08:08:17;;;;;;;7.80;4.90;;;;;;;6.47;49.93;100291.13;5028216;28;20045;-75
2021/12/26 08:10:44;;;;;;;6.95;4.20;;;;;;;6.46;49.97;100294.78;5028038;28;20416;-75
2021/12/26 08:13:12;;;;;;;7.57;4.63;;;;;;;6.50;49.99;100295.50;5012448;28;20046;-74
2021/12/26 08:15:38;;;;;;;7.93;4.78;;;;;;;6.48;50.06;100295.59;5025660;28;20073;-75
2021/12/26 08:18:05;;;;;;;6.70;4.28;;;;;;;6.49;50.05;100308.09;5022922;28;20516;-75
2021/12/26 08:20:32;;;;;;;7.15;4.53;;;;;;;6.50;50.19;100298.19;5022944;28;20053;-76
2021/12/26 08:23:00;;;;;;;7.55;4.80;;;;;;;6.49;50.18;100293.75;5027703;28;20064;-75
2021/12/26 08:25:26;;;;;;;8.07;4.60;;;;;;;6.50;50.04;100308.97;5028210;28;20529;-75
2021/12/26 08:27:53;;;;;;;7.85;4.72;;;;;;;6.51;50.26;100309.84;5026900;28;20464;-76
2021/12/26 08:30:20;;;;;;;7.85;4.53;;;;;;;6.54;50.20;100301.56;5028917;28;20049;-76
2021/12/26 08:32:51;;;;;;;8.57;5.20;;;;;;;6.55;50.18;100303.31;5027188;28;20080;-75
2021/12/26 08:35:18;;;;;;;7.38;4.90;;;;;;;6.57;49.74;100299.56;5028523;28;20045;-75
2021/12/26 08:37:47;;;;;;;7.20;4.50;;;;;;;6.56;50.01;100305.03;5026463;28;20448;-76
2021/12/26 08:40:14;;;;;;;6.88;4.55;;;;;;;6.58;49.78;100304.00;5028621;28;20063;-75
2021/12/26 08:42:41;;;;;;;8.13;5.00;;;;;;;6.57;50.22;100302.25;5027472;28;20084;-75
2021/12/26 08:45:09;;;;;;;7.20;4.95;;;;;;;6.61;50.06;100302.94;5025677;28;20050;-75
2021/12/26 08:47:37;;;;;;;7.78;4.80;;;;;;;6.60;50.21;100296.66;5025191;28;20092;-76
2021/12/26 08:50:06;;;;;;;7.28;4.75;;;;;;;6.61;49.90;100298.41;5024763;28;20046;-75
2021/12/26 08:52:32;;;;;;;7.07;4.47;;;;;;;6.60;49.98;100299.34;5027308;28;20049;-78
2021/12/26 08:54:59;;;;;;;7.68;4.75;;;;;;;6.61;49.97;100297.53;5014646;28;20393;-78
2021/12/26 08:57:26;;;;;;;6.82;4.53;;;;;;;6.63;50.10;100301.00;5027664;28;20061;-77
2021/12/26 08:59:52;;;;;;;8.48;5.05;;;;;;;6.62;50.18;100293.88;5031753;28;20096;-77
2021/12/26 09:02:19;;;;;;;7.95;4.55;;;;;;;6.64;50.21;100294.66;5026546;28;20064;-77
2021/12/26 09:04:46;;;;;;;7.65;4.70;;;;;;;6.66;50.37;100292.75;5025922;28;20068;-77
2021/12/26 09:07:12;;;;;;;7.82;4.72;;;;;;;6.66;50.43;100299.03;5005848;28;20081;-78
2021/12/26 09:09:39;;;;;;;7.90;4.80;;;;;;;6.67;50.06;100303.44;5038011;28;20123;-78
2021/12/26 09:12:07;;;;;;;9.48;5.43;;;;;;;6.67;50.24;100308.81;5008117;28;20045;-78
2021/12/26 09:14:34;;;;;;;8.80;5.82;;;;;;;6.69;50.02;100306.03;5044206;28;20055;-77
2021/12/26 09:17:01;;;;;;;8.88;5.25;;;;;;;6.70;50.29;100313.19;5009526;28;20049;-77
2021/12/26 09:19:28;;;;;;;8.00;5.43;;;;;;;6.69;50.12;100312.31;5027390;28;20046;-77
2021/12/26 09:21:59;;;;;;;7.53;5.07;;;;;;;6.71;50.11;100318.47;5010430;28;20065;-78
2021/12/26 09:24:29;;;;;;;8.50;5.15;;;;;;;6.73;50.31;100308.47;5029429;28;20072;-79
2021/12/26 09:26:56;;;;;;;8.25;4.70;;;;;;;6.74;50.37;100310.22;5010962;28;20136;-78
2021/12/26 09:29:23;;;;;;;8.15;4.63;;;;;;;6.77;50.60;100318.09;5034010;28;20045;-79
2021/12/26 09:31:51;;;;;;;6.55;4.50;;;;;;;6.80;50.45;100317.94;5027953;28;20455;-79
2021/12/26 09:34:18;;;;;;;9.10;5.30;;;;;;;6.83;50.30;100320.47;5027948;28;20520;-78
2021/12/26 09:36:45;;;;;;;6.90;4.68;;;;;;;6.86;50.23;100319.38;5026773;28;20045;-77
2021/12/26 09:39:12;;;;;;;8.13;4.97;;;;;;;6.86;50.38;100322.97;5026706;28;20084;-77
2021/12/26 09:41:39;;;;;;;8.60;5.15;;;;;;;6.86;50.36;100314.00;5027730;28;20049;-76
2021/12/26 09:44:10;;;;;;;8.88;5.13;;;;;;;6.90;50.26;100317.38;5026298;28;20186;-77
2021/12/26 09:46:37;;;;;;;8.57;5.05;;;;;;;6.88;50.38;100307.56;5026991;28;20128;-76
2021/12/26 09:49:04;;;;;;;8.80;5.60;;;;;;;6.91;50.42;100308.34;5025581;28;20045;-76
2021/12/26 09:51:32;;;;;;;9.55;5.47;;;;;;;6.92;50.06;100308.22;5023980;28;20053;-75
2021/12/26 09:53:59;;;;;;;10.63;5.38;;;;;;;6.93;50.28;100303.69;5027780;28;20068;-75
2021/12/26 09:56:28;;;;;;;9.02;5.55;;;;;;;6.95;50.61;100296.38;5031193;28;20053;-75
2021/12/26 09:59:02;;;;;;;9.52;5.85;;;;;;;6.98;50.31;100297.06;5040787;28;20419;-75
2021/12/26 10:01:37;;;;;;;9.05;5.78;;;;;;;6.98;50.73;100296.22;5021637;28;20038;-75
2021/12/26 10:04:20;;;;;;;8.70;5.22;;;;;;;7.01;50.26;100299.56;5029361;28;20100;-75
2021/12/26 10:07:11;;;;;;;8.60;5.60;;;;;;;6.99;50.21;100306.91;5020208;28;20706;-74
2021/12/26 10:09:41;;;;;;;7.95;4.80;;;;;;;7.00;50.41;100297.81;5020851;28;20045;-74
2021/12/26 10:12:12;;;;;;;8.20;5.03;;;;;;;7.04;50.45;100294.00;5024226;28;20041;-75
2021/12/26 10:14:41;;;;;;;8.27;5.25;;;;;;;7.04;50.54;100287.72;5017105;28;20049;-75
2021/12/26 10:17:11;;;;;;;7.75;5.25;;;;;;;7.08;50.47;100290.13;5031039;28;20092;-74
2021/12/26 10:19:47;;;;;;;9.07;5.38;;;;;;;7.10;50.46;100288.22;5029292;28;20448;-75
2021/12/26 10:22:28;;;;;;;8.75;5.47;;;;;;;7.12;50.51;100297.09;5021494;28;20412;-75
2021/12/26 10:24:55;;;;;;;7.22;4.80;;;;;;;7.11;50.58;100289.06;5030245;28;20073;-75
2021/12/26 10:27:29;;;;;;;8.55;5.65;;;;;;;7.14;50.74;100280.81;5029111;28;20765;-75
2021/12/26 10:29:58;;;;;;;8.75;5.70;;;;;;;7.17;50.43;100277.91;5030389;28;20045;-75
2021/12/26 10:32:32;;;;;;;9.05;5.57;;;;;;;7.19;50.36;100281.38;5023450;28;20560;-75
2021/12/26 10:35:00;;;;;;;7.30;4.47;;;;;;;7.17;50.56;100269.78;5031729;28;20043;-74
2021/12/26 10:41:25;;;;;;;9.00;5.55;;;;;;;7.18;50.61;100269.72;5021424;28;20052;-74
2021/12/26 10:43:54;;;;;;;8.23;4.75;;;;;;;7.19;50.69;100270.56;5025222;28;20057;-74
2021/12/26 10:46:21;;;;;;;9.77;5.47;;;;;;;7.20;50.61;100259.69;5024755;28;20120;-74
2021/12/26 10:48:49;;;;;;;8.18;5.35;;;;;;;7.23;50.83;100259.50;5026058;28;20046;-75
2021/12/26 10:51:33;;;;;;;8.38;5.18;;;;;;;7.23;50.43;100254.09;5027931;28;20076;-75
2021/12/26 10:54:16;;;;;;;9.43;5.25;;;;;;;7.26;50.93;100253.03;5030415;28;20045;-74
2021/12/26 10:57:03;;;;;;;8.25;4.88;;;;;;;7.26;50.97;100251.19;5029659;28;20068;-74
2021/12/26 10:59:30;;;;;;;8.25;5.00;;;;;;;7.25;50.88;100249.47;5026242;28;20061;-76
2021/12/26 11:01:58;;;;;;;8.38;5.13;;;;;;;7.29;50.95;100242.03;5030832;28;20400;-75
2021/12/26 11:04:25;;;;;;;8.32;5.22;;;;;;;7.32;51.10;100235.59;5034286;28;20381;-75
2021/12/26 11:07:00;;;;;;;7.53;4.90;;;;;;;7.33;51.38;100240.03;5019704;28;20096;-75
2021/12/26 11:09:31;;;;;;;8.27;5.43;;;;;;;7.33;51.47;100237.34;5023711;28;20042;-75
2021/12/26 11:12:12;;;;;;;8.65;5.32;;;;;;;7.34;51.15;100237.22;5030654;28;20297;-75
2021/12/26 11:14:59;;;;;;;8.60;4.97;;;;;;;7.33;51.75;100234.63;5030187;28;20507;-75
2021/12/26 11:17:33;;;;;;;8.68;5.03;;;;;;;7.33;51.83;100237.34;5030323;28;20046;-75
2021/12/26 11:20:00;;;;;;;8.38;4.90;;;;;;;7.31;51.60;100232.03;5030503;28;20057;-75
2021/12/26 11:22:27;;;;;;;8.60;4.80;;;;;;;7.33;51.35;100238.16;5029215;28;20052;-75
2021/12/26 11:24:57;;;;;;;8.70;5.22;;;;;;;7.34;51.52;100229.09;5013219;28;20046;-74
2021/12/26 11:27:27;;;;;;;7.88;5.03;;;;;;;7.35;51.64;100224.56;5011760;28;20049;-74
2021/12/26 11:29:54;;;;;;;8.43;5.22;;;;;;;7.36;51.78;100220.91;5031317;28;20108;-74
2021/12/26 11:32:26;;;;;;;8.35;4.97;;;;;;;7.36;51.61;100213.69;5017111;28;20310;-75
2021/12/26 11:34:54;;;;;;;8.20;4.75;;;;;;;7.36;51.92;100213.69;5038756;28;20096;-75
2021/12/26 11:37:22;;;;;;;8.48;5.28;;;;;;;7.38;51.71;100210.88;5019040;28;20404;-75
2021/12/26 11:39:51;;;;;;;7.72;4.68;;;;;;;7.40;52.05;100206.28;5029021;28;20405;-75
2021/12/26 11:42:55;;;;;;;8.98;5.40;;;;;;;7.42;52.40;100210.59;5029185;28;20103;-75
2021/12/26 11:45:37;;;;;;;7.53;5.30;;;;;;;7.42;52.55;100213.28;5019246;28;20447;-75
2021/12/26 11:48:41;;;;;;;7.55;5.03;;;;;;;7.40;52.75;100211.66;5028839;28;20583;-75
2021/12/26 11:51:19;;;;;;;6.57;4.25;;;;;;;7.37;52.46;100214.56;5029047;28;20045;-76
2021/12/26 11:54:08;;;;;;;7.93;4.82;;;;;;;7.43;52.25;100217.72;5029468;28;20046;-75